sensor_id;sensor_type;location;lat;lon;timestamp;P1;durP1;ratioP1;P2;durP2;ratioP2
76021;SDS011;64718;52.124;6.226;2022-12-18T00:01:57;68.75;;;20.13;;
76021;SDS011;64718;52.124;6.226;2022-12-18T00:04:25;51.13;;;17.83;;
76021;SDS011;64718;52.124;6.226;2022-12-18T00:06:52;49.72;;;15.65;;
76021;SDS011;64718;52.124;6.226;2022-12-18T00:09:19;42.22;;;16.55;;
76021;SDS011;64718;52.124;6.226;2022-12-18T00:11:46;49.80;;;16.65;;
76021;SDS011;64718;52.124;6.226;2022-12-18T00:14:14;55.83;;;20.15;;
76021;SDS011;64718;52.124;6.226;2022-12-18T00:16:43;55.05;;;17.77;;
76021;SDS011;64718;52.124;6.226;2022-12-18T00:19:10;47.78;;;18.70;;
76021;SDS011;64718;52.124;6.226;2022-12-18T00:21:37;52.72;;;16.00;;
76021;SDS011;64718;52.124;6.226;2022-12-18T00:24:04;45.58;;;15.93;;
76021;SDS011;64718;52.124;6.226;2022-12-18T00:26:31;54.05;;;17.00;;
76021;SDS011;64718;52.124;6.226;2022-12-18T00:28:59;63.60;;;19.73;;
76021;SDS011;64718;52.124;6.226;2022-12-18T00:31:28;62.75;;;19.48;;
76021;SDS011;64718;52.124;6.226;2022-12-18T00:33:55;64.40;;;20.15;;
76021;SDS011;64718;52.124;6.226;2022-12-18T00:36:23;51.00;;;17.35;;
76021;SDS011;64718;52.124;6.226;2022-12-18T00:38:52;59.45;;;19.35;;
76021;SDS011;64718;52.124;6.226;2022-12-18T00:41:20;57.78;;;19.73;;
76021;SDS011;64718;52.124;6.226;2022-12-18T00:44:00;60.00;;;20.17;;
76021;SDS011;64718;52.124;6.226;2022-12-18T00:46:28;67.95;;;19.88;;
76021;SDS011;64718;52.124;6.226;2022-12-18T00:48:55;77.10;;;21.25;;
76021;SDS011;64718;52.124;6.226;2022-12-18T00:51:21;70.45;;;20.65;;
76021;SDS011;64718;52.124;6.226;2022-12-18T00:53:48;80.15;;;24.23;;
76021;SDS011;64718;52.124;6.226;2022-12-18T00:56:14;64.82;;;20.88;;
76021;SDS011;64718;52.124;6.226;2022-12-18T00:58:41;57.15;;;19.63;;
76021;SDS011;64718;52.124;6.226;2022-12-18T01:01:07;64.25;;;19.70;;
76021;SDS011;64718;52.124;6.226;2022-12-18T01:03:35;75.13;;;24.33;;
76021;SDS011;64718;52.124;6.226;2022-12-18T01:06:05;63.25;;;19.15;;
76021;SDS011;64718;52.124;6.226;2022-12-18T01:08:32;62.50;;;17.75;;
76021;SDS011;64718;52.124;6.226;2022-12-18T01:10:58;63.15;;;18.48;;
76021;SDS011;64718;52.124;6.226;2022-12-18T01:13:25;61.97;;;17.23;;
76021;SDS011;64718;52.124;6.226;2022-12-18T01:15:51;60.85;;;20.17;;
76021;SDS011;64718;52.124;6.226;2022-12-18T01:18:18;49.95;;;18.13;;
76021;SDS011;64718;52.124;6.226;2022-12-18T01:20:46;70.38;;;21.30;;
76021;SDS011;64718;52.124;6.226;2022-12-18T01:23:13;72.38;;;21.92;;
76021;SDS011;64718;52.124;6.226;2022-12-18T01:25:39;68.65;;;21.25;;
76021;SDS011;64718;52.124;6.226;2022-12-18T01:28:06;59.22;;;19.73;;
76021;SDS011;64718;52.124;6.226;2022-12-18T01:30:32;68.05;;;21.05;;
76021;SDS011;64718;52.124;6.226;2022-12-18T01:32:59;52.85;;;17.77;;
76021;SDS011;64718;52.124;6.226;2022-12-18T01:35:25;42.22;;;16.77;;
76021;SDS011;64718;52.124;6.226;2022-12-18T01:37:55;68.45;;;21.48;;
76021;SDS011;64718;52.124;6.226;2022-12-18T01:40:21;52.53;;;16.85;;
76021;SDS011;64718;52.124;6.226;2022-12-18T01:42:49;53.55;;;17.45;;
76021;SDS011;64718;52.124;6.226;2022-12-18T01:45:21;51.55;;;17.20;;
76021;SDS011;64718;52.124;6.226;2022-12-18T01:47:50;51.50;;;18.55;;
76021;SDS011;64718;52.124;6.226;2022-12-18T01:50:20;53.75;;;17.30;;
76021;SDS011;64718;52.124;6.226;2022-12-18T01:52:50;45.00;;;15.75;;
76021;SDS011;64718;52.124;6.226;2022-12-18T01:55:20;58.40;;;17.45;;
76021;SDS011;64718;52.124;6.226;2022-12-18T01:57:49;42.95;;;16.02;;
76021;SDS011;64718;52.124;6.226;2022-12-18T02:00:20;50.88;;;17.67;;
76021;SDS011;64718;52.124;6.226;2022-12-18T02:02:48;50.35;;;17.92;;
76021;SDS011;64718;52.124;6.226;2022-12-18T02:05:15;46.45;;;16.83;;
76021;SDS011;64718;52.124;6.226;2022-12-18T02:07:46;61.30;;;21.05;;
76021;SDS011;64718;52.124;6.226;2022-12-18T02:10:24;54.58;;;16.75;;
76021;SDS011;64718;52.124;6.226;2022-12-18T02:12:56;50.10;;;18.77;;
76021;SDS011;64718;52.124;6.226;2022-12-18T02:15:31;46.17;;;15.20;;
76021;SDS011;64718;52.124;6.226;2022-12-18T02:18:03;46.22;;;16.13;;
76021;SDS011;64718;52.124;6.226;2022-12-18T02:20:34;50.83;;;16.80;;
76021;SDS011;64718;52.124;6.226;2022-12-18T02:23:08;45.58;;;17.13;;
76021;SDS011;64718;52.124;6.226;2022-12-18T02:25:53;43.58;;;16.05;;
76021;SDS011;64718;52.124;6.226;2022-12-18T02:28:31;38.55;;;15.88;;
76021;SDS011;64718;52.124;6.226;2022-12-18T02:31:02;45.50;;;14.00;;
76021;SDS011;64718;52.124;6.226;2022-12-18T02:33:32;43.67;;;14.85;;
76021;SDS011;64718;52.124;6.226;2022-12-18T02:36:01;41.17;;;14.68;;
76021;SDS011;64718;52.124;6.226;2022-12-18T02:38:29;42.72;;;16.73;;
76021;SDS011;64718;52.124;6.226;2022-12-18T02:40:58;52.55;;;16.33;;
76021;SDS011;64718;52.124;6.226;2022-12-18T02:43:26;42.97;;;14.40;;
76021;SDS011;64718;52.124;6.226;2022-12-18T02:45:53;42.35;;;15.75;;
76021;SDS011;64718;52.124;6.226;2022-12-18T02:48:22;46.80;;;15.25;;
76021;SDS011;64718;52.124;6.226;2022-12-18T02:50:52;37.63;;;15.10;;
76021;SDS011;64718;52.124;6.226;2022-12-18T02:53:30;37.97;;;14.30;;
76021;SDS011;64718;52.124;6.226;2022-12-18T02:56:05;36.55;;;13.45;;
76021;SDS011;64718;52.124;6.226;2022-12-18T02:58:40;38.40;;;15.35;;
76021;SDS011;64718;52.124;6.226;2022-12-18T03:01:14;40.72;;;15.63;;
76021;SDS011;64718;52.124;6.226;2022-12-18T03:03:46;44.72;;;16.17;;
76021;SDS011;64718;52.124;6.226;2022-12-18T03:06:18;38.35;;;15.82;;
76021;SDS011;64718;52.124;6.226;2022-12-18T03:08:50;43.42;;;14.88;;
76021;SDS011;64718;52.124;6.226;2022-12-18T03:11:21;45.40;;;17.30;;
76021;SDS011;64718;52.124;6.226;2022-12-18T03:14:08;46.33;;;17.23;;
76021;SDS011;64718;52.124;6.226;2022-12-18T03:16:36;49.65;;;16.33;;
76021;SDS011;64718;52.124;6.226;2022-12-18T03:19:04;50.67;;;15.85;;
76021;SDS011;64718;52.124;6.226;2022-12-18T03:21:36;42.53;;;15.80;;
76021;SDS011;64718;52.124;6.226;2022-12-18T03:24:07;31.15;;;13.60;;
76021;SDS011;64718;52.124;6.226;2022-12-18T03:26:37;35.08;;;13.00;;
76021;SDS011;64718;52.124;6.226;2022-12-18T03:29:07;39.55;;;14.70;;
76021;SDS011;64718;52.124;6.226;2022-12-18T03:31:39;35.95;;;13.63;;
76021;SDS011;64718;52.124;6.226;2022-12-18T03:34:09;37.28;;;15.38;;
76021;SDS011;64718;52.124;6.226;2022-12-18T03:36:39;34.72;;;12.38;;
76021;SDS011;64718;52.124;6.226;2022-12-18T03:39:06;44.10;;;18.38;;
76021;SDS011;64718;52.124;6.226;2022-12-18T03:41:33;39.33;;;16.48;;
76021;SDS011;64718;52.124;6.226;2022-12-18T03:44:10;41.75;;;14.55;;
76021;SDS011;64718;52.124;6.226;2022-12-18T03:49:10;49.88;;;16.83;;
76021;SDS011;64718;52.124;6.226;2022-12-18T03:51:42;37.08;;;16.83;;
76021;SDS011;64718;52.124;6.226;2022-12-18T03:54:14;34.95;;;13.98;;
76021;SDS011;64718;52.124;6.226;2022-12-18T03:56:45;35.00;;;13.88;;
76021;SDS011;64718;52.124;6.226;2022-12-18T03:59:14;42.78;;;14.70;;
76021;SDS011;64718;52.124;6.226;2022-12-18T04:01:45;41.05;;;14.85;;
76021;SDS011;64718;52.124;6.226;2022-12-18T04:04:15;40.83;;;14.13;;
76021;SDS011;64718;52.124;6.226;2022-12-18T04:06:44;35.78;;;14.75;;
76021;SDS011;64718;52.124;6.226;2022-12-18T04:09:13;32.53;;;13.35;;
76021;SDS011;64718;52.124;6.226;2022-12-18T04:11:40;39.30;;;14.52;;
76021;SDS011;64718;52.124;6.226;2022-12-18T04:14:10;35.17;;;15.85;;
76021;SDS011;64718;52.124;6.226;2022-12-18T04:16:37;40.45;;;14.43;;
76021;SDS011;64718;52.124;6.226;2022-12-18T04:19:03;39.63;;;14.50;;
76021;SDS011;64718;52.124;6.226;2022-12-18T04:21:30;30.08;;;14.23;;
76021;SDS011;64718;52.124;6.226;2022-12-18T04:23:56;34.90;;;12.68;;
76021;SDS011;64718;52.124;6.226;2022-12-18T04:26:23;30.95;;;12.55;;
76021;SDS011;64718;52.124;6.226;2022-12-18T04:28:49;35.42;;;14.40;;
76021;SDS011;64718;52.124;6.226;2022-12-18T04:31:17;35.58;;;14.15;;
76021;SDS011;64718;52.124;6.226;2022-12-18T04:33:44;43.40;;;13.13;;
76021;SDS011;64718;52.124;6.226;2022-12-18T04:36:10;27.92;;;11.60;;
76021;SDS011;64718;52.124;6.226;2022-12-18T04:38:38;33.58;;;12.88;;
76021;SDS011;64718;52.124;6.226;2022-12-18T04:41:04;25.55;;;10.60;;
76021;SDS011;64718;52.124;6.226;2022-12-18T04:43:31;37.53;;;13.18;;
76021;SDS011;64718;52.124;6.226;2022-12-18T04:46:01;40.42;;;14.93;;
76021;SDS011;64718;52.124;6.226;2022-12-18T04:48:29;26.17;;;12.05;;
76021;SDS011;64718;52.124;6.226;2022-12-18T04:50:56;32.40;;;12.02;;
76021;SDS011;64718;52.124;6.226;2022-12-18T04:53:23;29.88;;;11.40;;
76021;SDS011;64718;52.124;6.226;2022-12-18T04:55:49;30.30;;;12.77;;
76021;SDS011;64718;52.124;6.226;2022-12-18T04:58:16;32.05;;;13.40;;
76021;SDS011;64718;52.124;6.226;2022-12-18T05:00:42;29.55;;;11.30;;
76021;SDS011;64718;52.124;6.226;2022-12-18T05:03:09;30.88;;;11.00;;
76021;SDS011;64718;52.124;6.226;2022-12-18T05:05:37;27.13;;;11.35;;
76021;SDS011;64718;52.124;6.226;2022-12-18T05:08:04;25.38;;;9.73;;
76021;SDS011;64718;52.124;6.226;2022-12-18T05:10:30;38.40;;;11.55;;
76021;SDS011;64718;52.124;6.226;2022-12-18T05:12:57;27.15;;;11.15;;
76021;SDS011;64718;52.124;6.226;2022-12-18T05:15:27;31.02;;;10.95;;
76021;SDS011;64718;52.124;6.226;2022-12-18T05:17:54;27.85;;;10.68;;
76021;SDS011;64718;52.124;6.226;2022-12-18T05:20:21;28.70;;;13.20;;
76021;SDS011;64718;52.124;6.226;2022-12-18T05:22:49;19.25;;;9.55;;
76021;SDS011;64718;52.124;6.226;2022-12-18T05:25:16;24.77;;;10.23;;
76021;SDS011;64718;52.124;6.226;2022-12-18T05:27:42;26.48;;;11.38;;
76021;SDS011;64718;52.124;6.226;2022-12-18T05:30:10;26.92;;;10.45;;
76021;SDS011;64718;52.124;6.226;2022-12-18T05:32:37;23.10;;;10.00;;
76021;SDS011;64718;52.124;6.226;2022-12-18T05:35:05;30.05;;;10.25;;
76021;SDS011;64718;52.124;6.226;2022-12-18T05:37:33;22.85;;;9.77;;
76021;SDS011;64718;52.124;6.226;2022-12-18T05:40:01;23.15;;;10.60;;
76021;SDS011;64718;52.124;6.226;2022-12-18T05:42:29;21.30;;;9.60;;
76021;SDS011;64718;52.124;6.226;2022-12-18T05:44:56;24.77;;;9.43;;
76021;SDS011;64718;52.124;6.226;2022-12-18T05:47:23;19.13;;;9.70;;
76021;SDS011;64718;52.124;6.226;2022-12-18T05:49:49;22.35;;;8.80;;
76021;SDS011;64718;52.124;6.226;2022-12-18T05:52:16;19.63;;;9.10;;
76021;SDS011;64718;52.124;6.226;2022-12-18T05:54:42;19.35;;;8.77;;
76021;SDS011;64718;52.124;6.226;2022-12-18T05:57:10;21.02;;;9.68;;
76021;SDS011;64718;52.124;6.226;2022-12-18T05:59:37;19.38;;;9.07;;
76021;SDS011;64718;52.124;6.226;2022-12-18T06:02:03;21.02;;;9.82;;
76021;SDS011;64718;52.124;6.226;2022-12-18T06:04:30;19.58;;;8.77;;
76021;SDS011;64718;52.124;6.226;2022-12-18T06:06:57;18.80;;;8.10;;
76021;SDS011;64718;52.124;6.226;2022-12-18T06:09:23;20.70;;;8.43;;
76021;SDS011;64718;52.124;6.226;2022-12-18T06:11:50;22.52;;;8.82;;
76021;SDS011;64718;52.124;6.226;2022-12-18T06:14:19;19.33;;;8.85;;
76021;SDS011;64718;52.124;6.226;2022-12-18T06:16:45;27.35;;;9.75;;
76021;SDS011;64718;52.124;6.226;2022-12-18T06:19:14;22.63;;;8.45;;
76021;SDS011;64718;52.124;6.226;2022-12-18T06:21:41;24.05;;;8.77;;
76021;SDS011;64718;52.124;6.226;2022-12-18T06:24:08;21.42;;;9.25;;
76021;SDS011;64718;52.124;6.226;2022-12-18T06:26:36;22.25;;;9.13;;
76021;SDS011;64718;52.124;6.226;2022-12-18T06:29:04;17.42;;;8.43;;
76021;SDS011;64718;52.124;6.226;2022-12-18T06:31:32;23.88;;;9.32;;
76021;SDS011;64718;52.124;6.226;2022-12-18T06:33:58;25.50;;;9.30;;
76021;SDS011;64718;52.124;6.226;2022-12-18T06:36:25;23.02;;;10.50;;
76021;SDS011;64718;52.124;6.226;2022-12-18T06:38:52;21.85;;;8.85;;
76021;SDS011;64718;52.124;6.226;2022-12-18T06:41:19;21.48;;;8.68;;
76021;SDS011;64718;52.124;6.226;2022-12-18T06:43:47;21.92;;;10.15;;
76021;SDS011;64718;52.124;6.226;2022-12-18T06:46:13;24.23;;;9.27;;
76021;SDS011;64718;52.124;6.226;2022-12-18T06:48:41;22.08;;;9.48;;
76021;SDS011;64718;52.124;6.226;2022-12-18T06:51:08;22.38;;;8.75;;
76021;SDS011;64718;52.124;6.226;2022-12-18T06:53:35;23.75;;;8.65;;
76021;SDS011;64718;52.124;6.226;2022-12-18T06:56:02;26.45;;;9.45;;
76021;SDS011;64718;52.124;6.226;2022-12-18T06:58:29;20.25;;;9.35;;
76021;SDS011;64718;52.124;6.226;2022-12-18T07:00:59;22.33;;;9.98;;
76021;SDS011;64718;52.124;6.226;2022-12-18T07:03:27;18.48;;;8.55;;
76021;SDS011;64718;52.124;6.226;2022-12-18T07:05:55;21.75;;;9.50;;
76021;SDS011;64718;52.124;6.226;2022-12-18T07:08:21;19.75;;;9.65;;
76021;SDS011;64718;52.124;6.226;2022-12-18T07:10:48;24.67;;;9.60;;
76021;SDS011;64718;52.124;6.226;2022-12-18T07:13:15;23.17;;;10.25;;
76021;SDS011;64718;52.124;6.226;2022-12-18T07:15:41;19.83;;;8.05;;
76021;SDS011;64718;52.124;6.226;2022-12-18T07:18:08;27.40;;;11.43;;
76021;SDS011;64718;52.124;6.226;2022-12-18T07:20:35;22.40;;;8.93;;
76021;SDS011;64718;52.124;6.226;2022-12-18T07:23:03;25.23;;;10.63;;
76021;SDS011;64718;52.124;6.226;2022-12-18T07:25:30;32.42;;;10.73;;
76021;SDS011;64718;52.124;6.226;2022-12-18T07:27:56;23.25;;;9.65;;
76021;SDS011;64718;52.124;6.226;2022-12-18T07:30:23;21.42;;;10.55;;
76021;SDS011;64718;52.124;6.226;2022-12-18T07:32:49;27.13;;;11.52;;
76021;SDS011;64718;52.124;6.226;2022-12-18T07:35:16;23.42;;;10.35;;
76021;SDS011;64718;52.124;6.226;2022-12-18T07:37:43;27.40;;;10.18;;
76021;SDS011;64718;52.124;6.226;2022-12-18T07:40:12;25.77;;;9.73;;
76021;SDS011;64718;52.124;6.226;2022-12-18T07:42:38;29.05;;;11.13;;
76021;SDS011;64718;52.124;6.226;2022-12-18T07:45:05;22.77;;;10.70;;
76021;SDS011;64718;52.124;6.226;2022-12-18T07:47:33;23.40;;;9.00;;
76021;SDS011;64718;52.124;6.226;2022-12-18T07:50:01;29.48;;;12.52;;
76021;SDS011;64718;52.124;6.226;2022-12-18T07:52:27;23.90;;;10.27;;
76021;SDS011;64718;52.124;6.226;2022-12-18T07:54:54;23.02;;;10.48;;
76021;SDS011;64718;52.124;6.226;2022-12-18T07:57:22;17.35;;;8.60;;
76021;SDS011;64718;52.124;6.226;2022-12-18T07:59:48;24.88;;;8.82;;
76021;SDS011;64718;52.124;6.226;2022-12-18T08:02:15;18.70;;;8.93;;
76021;SDS011;64718;52.124;6.226;2022-12-18T08:04:42;20.35;;;9.13;;
76021;SDS011;64718;52.124;6.226;2022-12-18T08:07:08;20.60;;;8.60;;
76021;SDS011;64718;52.124;6.226;2022-12-18T08:09:35;23.17;;;10.02;;
76021;SDS011;64718;52.124;6.226;2022-12-18T08:12:01;18.45;;;8.13;;
76021;SDS011;64718;52.124;6.226;2022-12-18T08:14:29;21.55;;;9.00;;
76021;SDS011;64718;52.124;6.226;2022-12-18T08:16:56;25.90;;;10.77;;
76021;SDS011;64718;52.124;6.226;2022-12-18T08:19:22;21.50;;;9.77;;
76021;SDS011;64718;52.124;6.226;2022-12-18T08:21:49;29.55;;;12.82;;
76021;SDS011;64718;52.124;6.226;2022-12-18T08:24:16;23.67;;;10.48;;
76021;SDS011;64718;52.124;6.226;2022-12-18T08:26:42;15.68;;;7.70;;
76021;SDS011;64718;52.124;6.226;2022-12-18T08:29:09;17.35;;;7.25;;
76021;SDS011;64718;52.124;6.226;2022-12-18T08:31:37;24.38;;;11.18;;
76021;SDS011;64718;52.124;6.226;2022-12-18T08:34:03;23.48;;;9.70;;
76021;SDS011;64718;52.124;6.226;2022-12-18T08:36:30;22.42;;;10.02;;
76021;SDS011;64718;52.124;6.226;2022-12-18T08:38:56;19.83;;;8.30;;
76021;SDS011;64718;52.124;6.226;2022-12-18T08:41:23;27.27;;;12.65;;
76021;SDS011;64718;52.124;6.226;2022-12-18T08:43:50;18.63;;;10.73;;
76021;SDS011;64718;52.124;6.226;2022-12-18T08:46:35;14.80;;;7.43;;
76021;SDS011;64718;52.124;6.226;2022-12-18T08:49:04;14.00;;;7.38;;
76021;SDS011;64718;52.124;6.226;2022-12-18T08:51:31;17.70;;;8.23;;
76021;SDS011;64718;52.124;6.226;2022-12-18T08:53:58;16.90;;;8.30;;
76021;SDS011;64718;52.124;6.226;2022-12-18T08:56:25;15.70;;;7.90;;
76021;SDS011;64718;52.124;6.226;2022-12-18T08:58:52;15.82;;;8.30;;
76021;SDS011;64718;52.124;6.226;2022-12-18T09:01:20;16.85;;;7.88;;
76021;SDS011;64718;52.124;6.226;2022-12-18T09:03:47;15.68;;;7.32;;
76021;SDS011;64718;52.124;6.226;2022-12-18T09:06:15;15.90;;;7.22;;
76021;SDS011;64718;52.124;6.226;2022-12-18T09:08:42;15.50;;;7.82;;
76021;SDS011;64718;52.124;6.226;2022-12-18T09:11:11;16.77;;;9.27;;
76021;SDS011;64718;52.124;6.226;2022-12-18T09:13:40;13.90;;;6.50;;
76021;SDS011;64718;52.124;6.226;2022-12-18T09:16:07;12.98;;;6.45;;
76021;SDS011;64718;52.124;6.226;2022-12-18T09:18:33;15.38;;;7.60;;
76021;SDS011;64718;52.124;6.226;2022-12-18T09:21:06;15.00;;;6.88;;
76021;SDS011;64718;52.124;6.226;2022-12-18T09:23:35;13.07;;;6.53;;
76021;SDS011;64718;52.124;6.226;2022-12-18T09:26:01;14.27;;;7.35;;
76021;SDS011;64718;52.124;6.226;2022-12-18T09:28:28;11.60;;;5.80;;
76021;SDS011;64718;52.124;6.226;2022-12-18T09:30:55;15.07;;;5.55;;
76021;SDS011;64718;52.124;6.226;2022-12-18T09:33:21;11.18;;;6.00;;
76021;SDS011;64718;52.124;6.226;2022-12-18T09:35:48;11.20;;;5.43;;
76021;SDS011;64718;52.124;6.226;2022-12-18T09:38:15;14.25;;;6.20;;
76021;SDS011;64718;52.124;6.226;2022-12-18T09:40:45;14.25;;;7.13;;
76021;SDS011;64718;52.124;6.226;2022-12-18T09:43:17;14.30;;;7.07;;
76021;SDS011;64718;52.124;6.226;2022-12-18T09:45:46;14.75;;;6.93;;
76021;SDS011;64718;52.124;6.226;2022-12-18T09:48:18;14.25;;;5.93;;
76021;SDS011;64718;52.124;6.226;2022-12-18T09:50:49;14.10;;;6.85;;
76021;SDS011;64718;52.124;6.226;2022-12-18T09:53:19;13.50;;;6.10;;
76021;SDS011;64718;52.124;6.226;2022-12-18T09:55:50;10.93;;;5.72;;
76021;SDS011;64718;52.124;6.226;2022-12-18T09:58:19;9.02;;;5.72;;
76021;SDS011;64718;52.124;6.226;2022-12-18T10:00:51;14.30;;;6.05;;
76021;SDS011;64718;52.124;6.226;2022-12-18T10:03:18;10.70;;;5.47;;
76021;SDS011;64718;52.124;6.226;2022-12-18T10:05:46;9.13;;;5.18;;
76021;SDS011;64718;52.124;6.226;2022-12-18T10:08:22;10.95;;;5.35;;
76021;SDS011;64718;52.124;6.226;2022-12-18T10:10:56;10.75;;;5.13;;
76021;SDS011;64718;52.124;6.226;2022-12-18T10:13:28;19.23;;;8.10;;
76021;SDS011;64718;52.124;6.226;2022-12-18T10:16:03;13.75;;;5.45;;
76021;SDS011;64718;52.124;6.226;2022-12-18T10:18:41;12.50;;;5.55;;
76021;SDS011;64718;52.124;6.226;2022-12-18T10:21:21;13.05;;;6.10;;
76021;SDS011;64718;52.124;6.226;2022-12-18T10:23:54;9.18;;;4.75;;
76021;SDS011;64718;52.124;6.226;2022-12-18T10:26:30;10.45;;;5.90;;
76021;SDS011;64718;52.124;6.226;2022-12-18T10:28:58;11.07;;;5.40;;
76021;SDS011;64718;52.124;6.226;2022-12-18T10:31:25;8.85;;;5.00;;
76021;SDS011;64718;52.124;6.226;2022-12-18T10:33:53;9.40;;;6.18;;
76021;SDS011;64718;52.124;6.226;2022-12-18T10:36:20;10.65;;;5.22;;
76021;SDS011;64718;52.124;6.226;2022-12-18T10:38:47;10.30;;;5.35;;
76021;SDS011;64718;52.124;6.226;2022-12-18T10:41:23;8.70;;;4.80;;
76021;SDS011;64718;52.124;6.226;2022-12-18T10:44:10;13.40;;;5.70;;
76021;SDS011;64718;52.124;6.226;2022-12-18T10:46:38;8.38;;;4.63;;
76021;SDS011;64718;52.124;6.226;2022-12-18T10:49:05;10.63;;;5.53;;
76021;SDS011;64718;52.124;6.226;2022-12-18T10:51:32;11.35;;;6.15;;
76021;SDS011;64718;52.124;6.226;2022-12-18T10:54:00;7.30;;;4.13;;
76021;SDS011;64718;52.124;6.226;2022-12-18T10:56:29;10.82;;;4.97;;
76021;SDS011;64718;52.124;6.226;2022-12-18T10:59:00;11.65;;;5.35;;
76021;SDS011;64718;52.124;6.226;2022-12-18T11:01:28;9.43;;;5.22;;
76021;SDS011;64718;52.124;6.226;2022-12-18T11:04:13;7.95;;;4.05;;
76021;SDS011;64718;52.124;6.226;2022-12-18T11:06:52;10.63;;;5.15;;
76021;SDS011;64718;52.124;6.226;2022-12-18T11:09:21;11.60;;;5.55;;
76021;SDS011;64718;52.124;6.226;2022-12-18T11:11:49;9.60;;;5.28;;
76021;SDS011;64718;52.124;6.226;2022-12-18T11:14:20;10.48;;;4.93;;
76021;SDS011;64718;52.124;6.226;2022-12-18T11:16:50;13.63;;;4.75;;
76021;SDS011;64718;52.124;6.226;2022-12-18T11:19:27;10.73;;;5.20;;
76021;SDS011;64718;52.124;6.226;2022-12-18T11:21:58;12.15;;;6.93;;
76021;SDS011;64718;52.124;6.226;2022-12-18T11:24:27;9.82;;;6.03;;
76021;SDS011;64718;52.124;6.226;2022-12-18T11:26:56;9.15;;;4.97;;
76021;SDS011;64718;52.124;6.226;2022-12-18T11:29:28;10.20;;;4.45;;
76021;SDS011;64718;52.124;6.226;2022-12-18T11:32:12;8.32;;;4.35;;
76021;SDS011;64718;52.124;6.226;2022-12-18T11:34:50;8.00;;;5.18;;
76021;SDS011;64718;52.124;6.226;2022-12-18T11:37:19;8.95;;;5.35;;
76021;SDS011;64718;52.124;6.226;2022-12-18T11:39:49;11.27;;;4.95;;
76021;SDS011;64718;52.124;6.226;2022-12-18T11:42:24;11.18;;;5.88;;
76021;SDS011;64718;52.124;6.226;2022-12-18T11:45:03;10.32;;;5.30;;
76021;SDS011;64718;52.124;6.226;2022-12-18T11:47:48;10.10;;;4.93;;
76021;SDS011;64718;52.124;6.226;2022-12-18T11:50:21;10.75;;;5.32;;
76021;SDS011;64718;52.124;6.226;2022-12-18T11:52:50;10.75;;;5.82;;
76021;SDS011;64718;52.124;6.226;2022-12-18T11:55:19;9.73;;;5.32;;
76021;SDS011;64718;52.124;6.226;2022-12-18T11:57:55;10.32;;;4.85;;
76021;SDS011;64718;52.124;6.226;2022-12-18T12:00:32;9.00;;;4.93;;
76021;SDS011;64718;52.124;6.226;2022-12-18T12:03:13;12.20;;;4.72;;
76021;SDS011;64718;52.124;6.226;2022-12-18T12:05:51;7.20;;;3.85;;
76021;SDS011;64718;52.124;6.226;2022-12-18T12:08:30;7.28;;;4.40;;
76021;SDS011;64718;52.124;6.226;2022-12-18T12:11:09;8.98;;;4.80;;
76021;SDS011;64718;52.124;6.226;2022-12-18T12:13:47;10.23;;;4.97;;
76021;SDS011;64718;52.124;6.226;2022-12-18T12:16:35;10.23;;;4.82;;
76021;SDS011;64718;52.124;6.226;2022-12-18T12:19:14;10.27;;;4.82;;
76021;SDS011;64718;52.124;6.226;2022-12-18T12:26:56;7.93;;;4.80;;
76021;SDS011;64718;52.124;6.226;2022-12-18T12:29:34;8.85;;;4.05;;
76021;SDS011;64718;52.124;6.226;2022-12-18T12:32:17;9.63;;;5.10;;
76021;SDS011;64718;52.124;6.226;2022-12-18T12:34:55;7.70;;;3.97;;
76021;SDS011;64718;52.124;6.226;2022-12-18T12:37:38;8.60;;;4.43;;
76021;SDS011;64718;52.124;6.226;2022-12-18T12:40:17;10.25;;;5.13;;
76021;SDS011;64718;52.124;6.226;2022-12-18T12:42:51;9.90;;;4.80;;
76021;SDS011;64718;52.124;6.226;2022-12-18T12:45:39;13.35;;;5.20;;
76021;SDS011;64718;52.124;6.226;2022-12-18T12:48:13;9.27;;;4.55;;
76021;SDS011;64718;52.124;6.226;2022-12-18T12:50:44;13.30;;;5.53;;
76021;SDS011;64718;52.124;6.226;2022-12-18T12:53:15;10.70;;;5.45;;
76021;SDS011;64718;52.124;6.226;2022-12-18T12:55:48;11.25;;;4.60;;
76021;SDS011;64718;52.124;6.226;2022-12-18T12:58:16;12.02;;;4.88;;
76021;SDS011;64718;52.124;6.226;2022-12-18T13:00:51;8.70;;;3.95;;
76021;SDS011;64718;52.124;6.226;2022-12-18T13:03:32;10.57;;;5.93;;
76021;SDS011;64718;52.124;6.226;2022-12-18T13:06:12;7.28;;;4.55;;
76021;SDS011;64718;52.124;6.226;2022-12-18T13:08:52;9.32;;;4.97;;
76021;SDS011;64718;52.124;6.226;2022-12-18T13:11:36;7.88;;;5.00;;
76021;SDS011;64718;52.124;6.226;2022-12-18T13:14:23;9.18;;;4.85;;
76021;SDS011;64718;52.124;6.226;2022-12-18T13:16:56;8.45;;;5.15;;
76021;SDS011;64718;52.124;6.226;2022-12-18T13:19:42;9.05;;;4.22;;
76021;SDS011;64718;52.124;6.226;2022-12-18T13:22:20;9.88;;;5.15;;
76021;SDS011;64718;52.124;6.226;2022-12-18T13:24:48;10.05;;;5.15;;
76021;SDS011;64718;52.124;6.226;2022-12-18T13:30:41;7.95;;;4.50;;
76021;SDS011;64718;52.124;6.226;2022-12-18T13:33:37;11.55;;;5.15;;
76021;SDS011;64718;52.124;6.226;2022-12-18T13:36:13;7.85;;;3.95;;
76021;SDS011;64718;52.124;6.226;2022-12-18T13:38:42;10.32;;;5.75;;
76021;SDS011;64718;52.124;6.226;2022-12-18T13:41:23;9.02;;;4.80;;
76021;SDS011;64718;52.124;6.226;2022-12-18T13:43:51;9.98;;;5.05;;
76021;SDS011;64718;52.124;6.226;2022-12-18T13:46:23;9.57;;;4.80;;
76021;SDS011;64718;52.124;6.226;2022-12-18T13:48:53;9.15;;;4.90;;
76021;SDS011;64718;52.124;6.226;2022-12-18T13:51:25;9.25;;;4.35;;
76021;SDS011;64718;52.124;6.226;2022-12-18T13:53:53;8.90;;;4.95;;
76021;SDS011;64718;52.124;6.226;2022-12-18T13:56:23;10.13;;;5.15;;
76021;SDS011;64718;52.124;6.226;2022-12-18T14:01:48;9.27;;;5.18;;
76021;SDS011;64718;52.124;6.226;2022-12-18T14:04:21;6.45;;;4.07;;
76021;SDS011;64718;52.124;6.226;2022-12-18T14:06:53;9.13;;;5.13;;
76021;SDS011;64718;52.124;6.226;2022-12-18T14:09:25;10.50;;;5.10;;
76021;SDS011;64718;52.124;6.226;2022-12-18T14:11:55;14.48;;;5.40;;
76021;SDS011;64718;52.124;6.226;2022-12-18T14:14:44;8.85;;;4.43;;
76021;SDS011;64718;52.124;6.226;2022-12-18T14:17:13;11.00;;;5.20;;
76021;SDS011;64718;52.124;6.226;2022-12-18T14:19:42;13.25;;;6.82;;
76021;SDS011;64718;52.124;6.226;2022-12-18T14:22:14;8.90;;;5.63;;
76021;SDS011;64718;52.124;6.226;2022-12-18T14:24:43;8.27;;;4.78;;
76021;SDS011;64718;52.124;6.226;2022-12-18T14:27:20;9.23;;;5.43;;
76021;SDS011;64718;52.124;6.226;2022-12-18T14:29:49;9.60;;;4.53;;
76021;SDS011;64718;52.124;6.226;2022-12-18T14:32:16;9.88;;;5.35;;
76021;SDS011;64718;52.124;6.226;2022-12-18T14:34:45;7.35;;;4.25;;
76021;SDS011;64718;52.124;6.226;2022-12-18T14:37:14;9.63;;;4.72;;
76021;SDS011;64718;52.124;6.226;2022-12-18T14:39:51;9.45;;;5.15;;
76021;SDS011;64718;52.124;6.226;2022-12-18T14:42:19;9.20;;;5.03;;
76021;SDS011;64718;52.124;6.226;2022-12-18T14:44:46;35.20;;;13.57;;
76021;SDS011;64718;52.124;6.226;2022-12-18T14:47:13;44.97;;;16.58;;
76021;SDS011;64718;52.124;6.226;2022-12-18T14:49:41;92.30;;;30.40;;
76021;SDS011;64718;52.124;6.226;2022-12-18T14:52:17;66.13;;;25.27;;
76021;SDS011;64718;52.124;6.226;2022-12-18T14:54:49;15.95;;;8.50;;
76021;SDS011;64718;52.124;6.226;2022-12-18T14:57:18;17.90;;;9.55;;
76021;SDS011;64718;52.124;6.226;2022-12-18T14:59:48;10.98;;;6.75;;
76021;SDS011;64718;52.124;6.226;2022-12-18T15:02:18;11.88;;;5.68;;